createdAt,value
2018-12-26T00:03:28.177Z,22.02
2018-12-26T00:09:23.164Z,19.27
2018-12-26T00:15:18.173Z,22.77
2018-12-26T00:21:13.185Z,23.98
2018-12-26T00:27:08.186Z,22.46
2018-12-26T00:33:03.243Z,14.43
2018-12-26T00:38:58.200Z,20.53
2018-12-26T00:44:53.190Z,19.54
2018-12-26T00:50:48.232Z,18.64
2018-12-26T00:56:43.183Z,19.61
2018-12-26T01:02:38.243Z,15.27
2018-12-26T01:08:33.197Z,14.41
2018-12-26T01:14:28.207Z,15.29
2018-12-26T01:20:23.214Z,13.85
2018-12-26T01:26:19.163Z,13.53
2018-12-26T01:32:13.222Z,11.22
2018-12-26T01:38:08.225Z,17.18
2018-12-26T01:44:03.209Z,17.08
2018-12-26T01:49:58.212Z,14.58
2018-12-26T01:55:53.278Z,15.48
2018-12-26T02:01:48.268Z,14.86
2018-12-26T02:07:43.277Z,17.5
2018-12-26T02:13:38.241Z,17.93
2018-12-26T02:19:33.313Z,15.15
2018-12-26T02:25:28.248Z,21.6
2018-12-26T02:31:23.304Z,17.56
2018-12-26T02:37:18.273Z,14.65
2018-12-26T02:43:13.260Z,18.58
2018-12-26T02:49:08.295Z,13.77
2018-12-26T02:55:03.256Z,11.67
2018-12-26T03:00:58.259Z,10.85
2018-12-26T03:06:53.245Z,9.3
2018-12-26T03:12:48.302Z,7.59
2018-12-26T03:18:43.302Z,9.2
2018-12-26T03:24:38.287Z,7.97
2018-12-26T03:30:33.367Z,7.89
2018-12-26T03:36:28.257Z,6.52
2018-12-26T03:42:23.284Z,9.14
2018-12-26T03:48:18.267Z,10.62
2018-12-26T03:54:13.335Z,7.52
2018-12-26T04:00:08.306Z,7.28
2018-12-26T04:06:03.343Z,12.43
2018-12-26T04:11:58.306Z,6.1
2018-12-26T04:17:53.414Z,7.26
2018-12-26T04:23:48.293Z,8.24
2018-12-26T04:29:43.301Z,9.03
2018-12-26T04:35:38.366Z,12.5
2018-12-26T04:41:33.305Z,11.53
2018-12-26T04:47:28.301Z,9.01
2018-12-26T04:53:23.331Z,11.12
2018-12-26T04:59:18.346Z,10.22
2018-12-26T05:05:13.346Z,12.15
2018-12-26T05:11:08.345Z,8.4
2018-12-26T05:17:03.335Z,8.18
2018-12-26T05:22:58.329Z,8.85
2018-12-26T05:28:53.335Z,8.8
2018-12-26T05:34:48.339Z,9.47
2018-12-26T05:40:43.380Z,9.56
2018-12-26T05:46:38.356Z,12.47
2018-12-26T05:52:33.348Z,12.89
2018-12-26T05:58:28.343Z,11.6
2018-12-26T06:04:23.355Z,6.31
2018-12-26T06:10:18.388Z,9.92
2018-12-26T06:16:13.386Z,10.49
2018-12-26T06:22:08.417Z,9.69
2018-12-26T06:28:03.405Z,10.81
2018-12-26T06:33:58.358Z,14.25
2018-12-26T06:39:53.376Z,12.89
2018-12-26T06:45:48.378Z,12
2018-12-26T06:51:43.367Z,10.97
2018-12-26T06:57:38.366Z,9.98
2018-12-26T07:03:33.401Z,10.24
2018-12-26T07:09:28.386Z,12.09
2018-12-26T07:15:23.406Z,14.54
2018-12-26T07:21:18.414Z,11.98
2018-12-26T07:27:13.397Z,11.41
2018-12-26T07:33:08.404Z,9.69
2018-12-26T07:39:03.425Z,12.09
2018-12-26T07:44:58.418Z,10.62
2018-12-26T07:50:53.403Z,8.8
2018-12-26T07:56:48.434Z,10.19
2018-12-26T08:02:43.437Z,14.8
2018-12-26T08:08:38.473Z,14.69
2018-12-26T08:14:33.431Z,13.63
2018-12-26T08:20:28.415Z,10.33
2018-12-26T08:26:23.423Z,28.87
2018-12-26T08:32:18.424Z,10.77
2018-12-26T08:38:13.466Z,13.94
2018-12-26T08:44:08.445Z,10.15
2018-12-26T08:50:03.434Z,11.17
2018-12-26T08:55:58.456Z,12.76
2018-12-26T09:01:53.453Z,9.82
2018-12-26T09:07:48.464Z,12.64
2018-12-26T09:13:43.474Z,9.78
2018-12-26T09:19:38.460Z,8.56
2018-12-26T09:25:33.505Z,14.02
2018-12-26T09:31:28.489Z,8.86
2018-12-26T09:37:23.446Z,11.82
2018-12-26T09:43:18.496Z,9.7
2018-12-26T09:49:13.508Z,12.54
2018-12-26T09:55:08.479Z,11.34
2018-12-26T10:01:03.493Z,7.01
2018-12-26T10:06:58.478Z,9.43
2018-12-26T10:12:53.508Z,12.82
2018-12-26T10:18:48.502Z,11.71
2018-12-26T10:24:43.508Z,14.35
2018-12-26T10:30:38.512Z,9.31
2018-12-26T10:36:33.500Z,10.45
2018-12-26T10:42:28.510Z,13.23
2018-12-26T10:48:23.574Z,11.31
2018-12-26T10:54:18.516Z,8.67
2018-12-26T11:00:13.504Z,9.68
2018-12-26T11:06:08.503Z,11.13
2018-12-26T11:12:03.519Z,10.97
2018-12-26T11:17:58.519Z,15.05
2018-12-26T11:23:53.534Z,13.8
2018-12-26T11:29:48.549Z,13.12
2018-12-26T11:35:43.523Z,10.54
2018-12-26T11:41:38.568Z,9.37
2018-12-26T11:47:33.553Z,16.91
2018-12-26T11:53:28.540Z,9.01
2018-12-26T11:59:27.218Z,9.42
2018-12-26T12:05:18.535Z,11.82
2018-12-26T12:11:13.540Z,8.53
2018-12-26T12:17:08.546Z,6.64
2018-12-26T12:23:03.546Z,7.11
2018-12-26T12:28:58.547Z,8.12
2018-12-26T12:34:53.555Z,6.18
2018-12-26T12:40:48.596Z,9.07
2018-12-26T12:46:43.634Z,5.46
2018-12-26T12:52:38.571Z,6.18
2018-12-26T12:58:33.590Z,7.53
2018-12-26T13:04:28.602Z,7.04
2018-12-26T13:10:23.586Z,8.23
2018-12-26T13:16:18.571Z,8.08
2018-12-26T13:22:13.669Z,8.69
2018-12-26T13:28:08.619Z,8.08
2018-12-26T13:34:03.617Z,13.17
2018-12-26T13:39:58.593Z,7.44
2018-12-26T13:45:53.619Z,6.49
2018-12-26T13:51:48.619Z,11.34
2018-12-26T13:57:43.654Z,8.58
2018-12-26T14:03:38.617Z,8.44
2018-12-26T14:09:33.610Z,8.48
2018-12-26T14:15:28.629Z,8.66
2018-12-26T14:21:23.668Z,9.2
2018-12-26T14:27:18.678Z,7.78
2018-12-26T14:33:13.628Z,8.97
2018-12-26T14:39:08.627Z,8.45
2018-12-26T14:45:03.664Z,6.47
2018-12-26T14:50:58.623Z,11
2018-12-26T14:56:53.643Z,10.17
2018-12-26T15:02:48.666Z,9.09
2018-12-26T15:08:43.650Z,6.18
2018-12-26T15:14:38.655Z,7.92
2018-12-26T15:20:33.692Z,9.22
2018-12-26T15:26:28.649Z,12.44
2018-12-26T15:32:23.684Z,7.28
2018-12-26T15:38:18.669Z,15.45
2018-12-26T15:44:13.708Z,14.39
2018-12-26T15:50:08.670Z,8.95
2018-12-26T15:56:03.674Z,11.1
2018-12-26T16:01:58.668Z,18.79
2018-12-26T16:07:53.717Z,12.03
2018-12-26T16:13:48.678Z,13.35
2018-12-26T16:19:43.681Z,13.23
2018-12-26T16:25:38.735Z,7.48
2018-12-26T16:31:33.722Z,16.96
2018-12-26T16:37:28.708Z,13.65
2018-12-26T16:43:23.736Z,9.53
2018-12-26T16:49:18.750Z,19.01
2018-12-26T16:55:13.692Z,19.86
2018-12-26T17:01:08.715Z,18.85
2018-12-26T17:07:03.738Z,16.8
2018-12-26T17:12:58.716Z,10.41
2018-12-26T17:18:53.703Z,18.86
2018-12-26T17:24:48.719Z,21.54
2018-12-26T17:30:43.737Z,17.19
2018-12-26T17:36:38.734Z,14.15
2018-12-26T17:42:33.753Z,17.87
2018-12-26T17:48:28.778Z,21.66
2018-12-26T17:54:23.743Z,26.21
2018-12-26T18:00:18.726Z,26.09
2018-12-26T18:06:13.788Z,32.91
2018-12-26T18:12:11.972Z,29.82
2018-12-26T18:18:03.788Z,25.1
2018-12-26T18:23:58.764Z,27.54
2018-12-26T18:29:53.753Z,23.5
2018-12-26T18:35:48.766Z,21.32
2018-12-26T18:41:43.795Z,25.33
2018-12-26T18:47:38.767Z,23.29
2018-12-26T18:53:33.763Z,25.51
2018-12-26T18:59:28.772Z,19.87
2018-12-26T19:05:23.787Z,23.99
2018-12-26T19:11:18.851Z,22.23
2018-12-26T19:17:13.837Z,34.43
2018-12-26T19:23:08.807Z,34.72
2018-12-26T19:29:03.791Z,45.35
2018-12-26T19:34:58.798Z,39.48
2018-12-26T19:40:53.820Z,35.65
2018-12-26T19:46:48.890Z,37.25
2018-12-26T19:52:43.827Z,38.86
2018-12-26T19:58:38.811Z,27.46
2018-12-26T20:04:33.817Z,33.45
2018-12-26T20:10:28.830Z,24.78
2018-12-26T20:16:23.826Z,27.56
2018-12-26T20:22:18.843Z,30.19
2018-12-26T20:28:13.944Z,27.46
2018-12-26T20:34:08.849Z,23.47
2018-12-26T20:40:03.855Z,24.85
2018-12-26T20:45:58.859Z,30.52
2018-12-26T20:51:53.877Z,27.44
2018-12-26T20:57:48.845Z,26.9
2018-12-26T21:03:43.872Z,22.65
2018-12-26T21:09:38.884Z,18.54
2018-12-26T21:15:33.856Z,22.82
2018-12-26T21:21:28.850Z,24.59
2018-12-26T21:27:23.848Z,18.97
2018-12-26T21:33:18.863Z,24.12
2018-12-26T21:39:13.877Z,24.25
2018-12-26T21:45:08.862Z,21.13
2018-12-26T21:51:03.874Z,22.62
2018-12-26T21:56:58.913Z,26.24
2018-12-26T22:02:53.875Z,26.12
2018-12-26T22:08:48.892Z,25.8
2018-12-26T22:14:43.884Z,32.89
2018-12-26T22:20:38.931Z,28.07
2018-12-26T22:26:33.905Z,27.96
2018-12-26T22:32:30.677Z,27.86
2018-12-26T22:38:23.928Z,26.72
2018-12-26T22:44:18.913Z,23.2
2018-12-26T22:50:13.900Z,25.41
2018-12-26T22:56:08.902Z,22.11
2018-12-26T23:02:03.939Z,20.03
2018-12-26T23:07:58.905Z,29.97
2018-12-26T23:13:53.922Z,23.57
2018-12-26T23:19:48.918Z,28.1
2018-12-26T23:25:43.956Z,23.17
2018-12-26T23:31:38.931Z,25.86
2018-12-26T23:37:33.979Z,27.52
2018-12-26T23:43:28.943Z,25.79
2018-12-26T23:49:23.934Z,22.23
2018-12-26T23:55:18.957Z,24.16
